Terminal Aerodrome Forecast
Issued by NWS

Home | Current Version | Previous Version | Text Only | Print | Product List | Glossary On
Versions: 1 2 3 4 5 6 7 8 9 10 11 12 13 14 15 16
000
FTUS45 KVEF 030525
TAFBIH
TAF
KBIH 030525Z 0306/0406 16017G27KT P6SM BKN100
     FM031000 20007KT P6SM FEW100
     FM031200 35008KT P6SM FEW100
     FM031900 16014G20KT P6SM SKC=

USA.gov is the U.S. government's official web portal to all federal, state and local government web resources and services.